Pagrindinis puslapis
METAR-TAF:

METAR-TAF

Oro uostai :

Capo Mele

Andora, Italija

platuma: 43-57N, ilguma: 008-10E, Aukštis: 220 m

Dabartinis oras

Ataskaita buvo paskelbta 1 valandą ir 11 minutes, ne 01:55 UTC
Vėjas 12 kt iš Šiaurės/Šiaurės Vakarų su gūsio iki 22 kt
Temperatūra 7°C
Drėgmė 87%
Slėgis 1019 hPa
Matomumas: 8000 m
Išsisklaidę debesys ne aukštis 1500 ft
Su prošvaistėmis ne aukštis 2000 ft
lietus

METAR: LIMU 180155Z 33012G22KT 8000 RA SCT015 BKN020 07/05 Q1019 RMK OVC QUK / QUL / VIS MAR 8 KM VIS MIN 8000

Laikas: 04:06 (03:06 UTC)


TAF: trūkstamas

Orai ataskaitas ir orų prognozės (METAR, TAF).

turimą stotys yra geltonos ir raudonos taškus žemėlapyje.

Perkelti pele per norėdami pamatyti stoties vardą.

Tada spustelėkite, norėdami matyti oro stebėjimo ir prognozės.

Norėdami pakeisti žemėlapį: spustelėkite ant žalios mygtukų su juodo kryžiaus žemyn,; žalią mygtuką su brūkšneliu, jei norite nutolinti; arba žalių rodyklių gretimoms žemėlapius.


METAR-TAF: